Главная страница
METAR-TAF:

METAR-TAF

Аэропорты :

Окленд, Новая Зеландия

широта: 37-01S, долгота: 174-48E, высота над уровнем моря: 7 м

Текущие метеонаблюдения

Эта сводка был подготовлена 35 минут назад, в 08:30 UTC
Ветер 7 Узел от западный-юго-западный
Температура 13°C
Влажность 77%
Давление 1020 hPa
Видимость 10 км и более

METAR: NZAA 240830Z AUTO 25007KT 9999 NCD 13/09 Q1020

Время: 21:05 (09:05 UTC)

Прогноз

Эта сводка был подготовлена 1 час и 5 минут назад, в 08:00 UTC
Прогноз действительный с 24-го 09 UTC до 25-го 12 UTC
Ветер 10 Узел от западный
Видимость 10 км и более
Нет облачности ниже 1500 м, и нет кучево-дождевой облачности
С 24-го 1000 UTC
Ветер 2 Узел переменных направлений
Видимость 10 км и более
Отдельные облака на высоте 2500 фута
Рассеянная облачность на высоте 4000 фута
изменения
С 24-го 20 UTC до 24-го 22 UTC
Ветер 10 Узел от северо-северо-восточный

TAF: NZAA 240800Z 2409/2512 28010KT CAVOK FM241000 VRB02KT 9999 SCT025 BKN040 BECMG 2420/2422 02010KT

Метеонаблюдения и прогнозы для более 4000 аэропортов (сводки METAR и TAF).

Имеющиеся станции представлены на карте желтыми и красными точками.

Чтобы увидеть название станции, наведите на нее мышь.

Затем щелкните, чтобы увидеть метеонаблюдения и метеопрогнозы.

Управление картой: чтобы увеличить масштаб, щелкните зеленые кнопки с черным крестиком; чтобы уменьшить масштаб, щелкните зеленую кнопку с тире; для просмотра соседних карт щелкайте зеленые стрелки.


METAR-TAF: